Time;durP1;ratioP1;P1;durP2;ratioP2;P2;SDS_P1;SDS_P2;PMS_P1;PMS_P2;Temp;Humidity;BMP_temperature;BMP_pressure;BME280_temperature;BME280_humidity;BME280_pressure;Samples;Min_cycle;Max_cycle;Signal;HPM_P1;HPM_P2
2023/12/30 05:02:38;;;;;;;1.00;0.90;;;6.70;97.30;;;;;;5143468;23;20516;-93
2023/12/30 05:05:04;;;;;;;1.00;0.90;;;6.60;97.30;;;;;;5043378;28;20439;-93
2023/12/30 05:07:29;;;;;;;1.00;0.90;;;6.70;97.30;;;;;;5036997;28;20247;-94
2023/12/30 05:09:58;;;;;;;1.00;0.90;;;6.70;97.30;;;;;;5035810;28;20438;-94
2023/12/30 05:12:30;;;;;;;1.00;0.90;;;6.70;97.30;;;;;;5047556;28;20295;-92
2023/12/30 05:14:56;;;;;;;2.33;1.80;;;6.70;97.30;;;;;;5052179;28;20411;-95
2023/12/30 05:17:21;;;;;;;1.00;0.90;;;6.70;97.30;;;;;;5038862;28;20474;-95
2023/12/30 05:19:47;;;;;;;0.93;0.83;;;6.70;97.30;;;;;;5037437;28;20191;-95
2023/12/30 05:22:18;;;;;;;1.00;0.90;;;6.70;97.30;;;;;;5030962;28;20209;-94
2023/12/30 05:24:43;;;;;;;1.10;1.00;;;6.70;97.30;;;;;;5035671;28;20204;-94
2023/12/30 05:27:09;;;;;;;1.00;0.90;;;6.70;97.30;;;;;;5023379;28;20467;-94
2023/12/30 05:29:37;;;;;;;1.00;0.90;;;6.70;97.30;;;;;;5045003;28;20219;-94
2023/12/30 05:32:04;;;;;;;0.97;0.90;;;6.70;97.30;;;;;;5025522;28;20199;-92
2023/12/30 05:34:29;;;;;;;2.00;1.77;;;6.70;97.30;;;;;;5035565;28;20415;-93
2023/12/30 05:36:55;;;;;;;1.00;0.90;;;6.60;97.30;;;;;;5035281;28;20423;-94
2023/12/30 05:39:20;;;;;;;10.23;1.57;;;6.60;97.30;;;;;;5033892;28;20189;-95
2023/12/30 05:41:46;;;;;;;1.00;0.90;;;6.60;97.30;;;;;;5037140;28;20502;-94
2023/12/30 05:44:11;;;;;;;1.00;0.90;;;6.60;97.30;;;;;;5042692;28;20188;-93
2023/12/30 05:46:37;;;;;;;0.97;0.87;;;6.60;97.30;;;;;;5034916;28;20208;-93
2023/12/30 05:49:11;;;;;;;1.00;0.90;;;6.60;97.30;;;;;;5031143;28;20181;-95
2023/12/30 05:51:50;;;;;;;1.00;0.90;;;6.50;97.30;;;;;;5029577;28;20202;-94
2023/12/30 05:54:18;;;;;;;0.90;0.80;;;6.50;97.30;;;;;;5041048;28;20408;-94
2023/12/30 05:56:43;;;;;;;1.10;1.00;;;6.50;97.30;;;;;;5040783;28;20425;-94
2023/12/30 05:59:09;;;;;;;2.50;2.30;;;6.50;97.30;;;;;;5023937;28;20446;-93
2023/12/30 06:01:50;;;;;;;1.00;0.90;;;6.50;97.30;;;;;;5037788;28;20220;-94
2023/12/30 06:04:18;;;;;;;1.20;1.10;;;6.50;97.30;;;;;;5037605;28;20181;-94
2023/12/30 06:06:47;;;;;;;0.97;0.87;;;6.40;97.30;;;;;;5039363;28;20466;-94
2023/12/30 06:09:14;;;;;;;1.00;0.90;;;6.40;97.30;;;;;;5029008;28;20432;-93
2023/12/30 06:11:40;;;;;;;1.10;1.00;;;6.40;97.30;;;;;;5044433;28;20510;-94
2023/12/30 06:14:08;;;;;;;1.10;1.00;;;6.40;97.30;;;;;;5036534;28;20412;-92
2023/12/30 06:16:41;;;;;;;1.00;0.90;;;6.40;97.30;;;;;;5043536;28;20259;-93
2023/12/30 06:19:09;;;;;;;1.00;0.90;;;6.40;97.30;;;;;;5036496;28;20434;-92
2023/12/30 06:21:37;;;;;;;1.00;0.90;;;6.30;97.30;;;;;;5030650;28;20467;-93
2023/12/30 06:26:49;;;;;;;1.10;1.00;;;6.30;97.30;;;;;;5019590;28;20550;-91
2023/12/30 06:29:18;;;;;;;0.90;0.80;;;6.30;97.30;;;;;;5042072;28;20422;-93
2023/12/30 06:32:07;;;;;;;1.10;1.00;;;6.30;97.30;;;;;;5043019;28;20485;-93
2023/12/30 06:34:41;;;;;;;1.00;0.90;;;6.30;97.30;;;;;;5017834;28;20426;-95
2023/12/30 06:37:09;;;;;;;0.80;0.70;;;6.30;97.30;;;;;;5032452;28;20487;-93
2023/12/30 06:39:37;;;;;;;1.00;0.90;;;6.30;97.30;;;;;;5031849;28;20454;-92
2023/12/30 06:42:03;;;;;;;1.00;0.90;;;6.30;97.30;;;;;;5019607;28;20498;-94
2023/12/30 06:44:29;;;;;;;1.63;1.30;;;6.30;97.30;;;;;;5030601;28;20427;-93
2023/12/30 06:46:54;;;;;;;1.00;0.90;;;6.40;97.30;;;;;;5030440;28;20562;-94
2023/12/30 06:49:20;;;;;;;1.00;0.90;;;6.40;97.30;;;;;;5040634;28;20266;-92
2023/12/30 06:51:46;;;;;;;1.50;1.40;;;6.40;97.30;;;;;;5029164;28;20211;-91
2023/12/30 06:54:11;;;;;;;5.33;1.30;;;6.40;97.30;;;;;;5023860;28;20873;-90
2023/12/30 06:56:37;;;;;;;1.00;0.90;;;6.40;97.30;;;;;;5031487;28;20181;-93
2023/12/30 06:59:02;;;;;;;1.00;0.90;;;6.40;97.30;;;;;;5035350;28;20647;-94
2023/12/30 07:01:28;;;;;;;99.70;2.60;;;6.30;97.30;;;;;;5033144;28;20790;-94
2023/12/30 07:03:55;;;;;;;1.00;0.90;;;6.30;97.30;;;;;;5028646;28;20195;-93
2023/12/30 07:06:20;;;;;;;1.10;1.00;;;6.40;97.30;;;;;;5036529;28;20165;-94
2023/12/30 07:08:49;;;;;;;1.00;0.90;;;6.30;97.30;;;;;;5043349;28;20453;-93
2023/12/30 07:11:17;;;;;;;1.07;0.97;;;6.30;97.30;;;;;;5028611;28;20200;-92
2023/12/30 07:13:43;;;;;;;12.67;1.40;;;6.30;97.30;;;;;;5023058;28;20435;-93
2023/12/30 07:16:08;;;;;;;1.30;1.20;;;6.40;97.30;;;;;;5027274;28;20428;-94
2023/12/30 07:18:56;;;;;;;1.00;0.90;;;6.30;97.30;;;;;;5030626;28;20424;-94
2023/12/30 07:21:29;;;;;;;1.10;1.00;;;6.40;97.30;;;;;;5028685;28;20205;-94
2023/12/30 07:23:57;;;;;;;0.90;0.80;;;6.30;97.30;;;;;;5031102;28;20420;-94
2023/12/30 07:26:51;;;;;;;1.03;0.93;;;6.30;97.30;;;;;;5027901;28;20723;-91
2023/12/30 07:29:19;;;;;;;1.00;0.90;;;6.30;97.30;;;;;;5031734;28;20412;-94
2023/12/30 07:31:48;;;;;;;1.40;1.30;;;6.30;97.30;;;;;;5028163;28;20434;-93
2023/12/30 07:34:20;;;;;;;1.37;1.27;;;6.30;97.30;;;;;;5027504;28;20507;-92
2023/12/30 07:36:47;;;;;;;1.07;0.97;;;6.30;97.30;;;;;;5024010;28;20415;-94
2023/12/30 07:39:18;;;;;;;1.70;1.60;;;6.30;97.30;;;;;;5023879;28;20975;-93
2023/12/30 07:42:06;;;;;;;1.30;1.20;;;6.30;97.30;;;;;;5023924;28;20504;-93
2023/12/30 07:44:29;;;;;;;1.60;1.53;;;6.30;97.30;;;;;;5023550;28;20794;-94
2023/12/30 07:46:57;;;;;;;1.00;0.90;;;6.30;97.30;;;;;;5025103;28;20474;-93
2023/12/30 07:49:22;;;;;;;3.57;2.03;;;6.30;97.30;;;;;;5028318;28;20185;-95
2023/12/30 07:51:48;;;;;;;1.50;1.40;;;6.30;97.30;;;;;;5025048;28;20471;-94
2023/12/30 07:54:13;;;;;;;1.03;0.93;;;6.30;97.30;;;;;;5029502;28;20184;-92
2023/12/30 07:56:39;;;;;;;1.10;1.00;;;6.30;97.30;;;;;;5029407;28;20188;-93
2023/12/30 07:59:07;;;;;;;1.00;0.90;;;6.30;97.30;;;;;;5030512;28;20177;-94
2023/12/30 08:01:32;;;;;;;1.10;1.00;;;6.30;97.30;;;;;;5027696;28;20228;-94
2023/12/30 08:03:58;;;;;;;1.00;0.90;;;6.30;97.30;;;;;;5028427;28;20486;-94
2023/12/30 08:06:23;;;;;;;1.10;1.00;;;6.40;97.30;;;;;;5028493;28;20601;-93
2023/12/30 08:08:49;;;;;;;1.30;1.20;;;6.30;97.30;;;;;;5026053;28;20189;-94
2023/12/30 08:11:15;;;;;;;1.07;1.00;;;6.40;97.30;;;;;;5028459;28;20225;-93
2023/12/30 08:13:40;;;;;;;1.00;0.90;;;6.40;97.30;;;;;;5027305;28;20703;-93
2023/12/30 08:16:06;;;;;;;1.00;0.90;;;6.40;97.30;;;;;;5039649;28;20423;-95
2023/12/30 08:18:31;;;;;;;1.00;0.90;;;6.40;97.30;;;;;;5031669;28;20189;-94
2023/12/30 08:20:57;;;;;;;1.00;0.90;;;6.40;97.30;;;;;;5044213;28;20197;-94
2023/12/30 08:23:22;;;;;;;1.00;0.90;;;6.40;97.30;;;;;;5033851;28;20176;-92
2023/12/30 08:25:48;;;;;;;1.80;1.70;;;6.40;97.30;;;;;;5047354;28;20189;-94
2023/12/30 08:28:14;;;;;;;1.00;0.90;;;6.50;97.30;;;;;;5030196;28;20232;-93
2023/12/30 08:30:39;;;;;;;1.00;0.90;;;6.50;97.30;;;;;;5027116;28;20747;-92
2023/12/30 08:33:07;;;;;;;1.53;1.43;;;6.50;97.30;;;;;;5026367;28;20201;-95
2023/12/30 08:35:39;;;;;;;1.93;1.10;;;6.50;97.30;;;;;;5030072;28;20191;-93
2023/12/30 08:38:06;;;;;;;1.00;0.90;;;6.50;97.30;;;;;;5041190;28;20462;-95
2023/12/30 08:40:39;;;;;;;1.10;1.00;;;6.50;97.30;;;;;;5040612;28;20410;-91
2023/12/30 08:43:07;;;;;;;1.00;0.90;;;6.60;97.30;;;;;;5044853;28;20446;-95
2023/12/30 08:45:49;;;;;;;1.00;0.90;;;6.60;97.30;;;;;;5031724;28;20443;-93
2023/12/30 08:48:17;;;;;;;0.97;0.87;;;6.60;97.30;;;;;;5040710;28;20483;-94
2023/12/30 08:50:48;;;;;;;1.13;1.03;;;6.70;97.30;;;;;;5039858;28;20472;-92
2023/12/30 08:53:18;;;;;;;1.00;0.90;;;6.80;97.30;;;;;;5038911;28;20494;-93
2023/12/30 08:56:07;;;;;;;1.10;1.00;;;7.00;97.30;;;;;;5035720;28;20435;-95
2023/12/30 08:58:37;;;;;;;1.00;0.90;;;7.10;97.30;;;;;;5040778;28;20434;-95
2023/12/30 09:01:11;;;;;;;1.30;1.20;;;7.20;97.30;;;;;;5039011;28;20464;-94
2023/12/30 09:03:38;;;;;;;1.17;1.07;;;7.30;97.30;;;;;;5032740;28;20504;-94
2023/12/30 09:06:07;;;;;;;1.20;1.10;;;7.30;97.30;;;;;;5034840;28;20407;-94
2023/12/30 09:08:38;;;;;;;1.10;1.00;;;7.40;97.30;;;;;;5049915;28;20474;-95
2023/12/30 09:11:19;;;;;;;1.10;1.00;;;7.50;97.30;;;;;;5031503;28;20537;-93
2023/12/30 09:13:47;;;;;;;1.57;1.47;;;7.60;97.30;;;;;;5018948;28;20423;-94
2023/12/30 09:16:13;;;;;;;1.13;1.03;;;7.70;97.30;;;;;;5037335;28;20424;-93
2023/12/30 09:18:38;;;;;;;1.03;0.93;;;7.80;97.30;;;;;;5027974;28;20485;-94
2023/12/30 09:21:06;;;;;;;1.67;1.57;;;7.90;97.30;;;;;;5037409;28;20197;-93
2023/12/30 09:23:32;;;;;;;1.80;1.23;;;8.00;97.30;;;;;;5037368;28;20184;-94
2023/12/30 09:25:57;;;;;;;1.40;1.30;;;8.10;97.30;;;;;;5038308;28;20956;-93
2023/12/30 09:28:23;;;;;;;1.10;1.00;;;8.10;97.30;;;;;;5028985;28;20835;-92
2023/12/30 09:30:48;;;;;;;1.07;0.97;;;8.20;97.30;;;;;;5024747;28;20205;-93
2023/12/30 09:33:14;;;;;;;1.30;1.20;;;8.20;97.30;;;;;;5026831;28;20165;-93
2023/12/30 09:35:39;;;;;;;1.10;1.00;;;8.30;97.30;;;;;;5041523;28;20188;-93
2023/12/30 09:38:05;;;;;;;1.10;1.00;;;8.40;97.30;;;;;;5026797;28;20181;-92
2023/12/30 09:40:30;;;;;;;1.00;0.90;;;8.40;97.30;;;;;;5024541;28;20189;-94
2023/12/30 09:43:03;;;;;;;1.13;1.03;;;8.50;97.30;;;;;;5023188;28;20184;-91
2023/12/30 09:45:30;;;;;;;1.10;1.00;;;8.50;97.30;;;;;;5029417;28;20279;-94
2023/12/30 09:47:59;;;;;;;1.27;1.17;;;8.50;97.30;;;;;;5022879;28;20464;-93
2023/12/30 09:50:25;;;;;;;0.97;0.87;;;8.50;97.30;;;;;;5030907;28;20448;-92
2023/12/30 09:52:51;;;;;;;0.90;0.80;;;8.50;97.30;;;;;;5032259;28;20416;-93
2023/12/30 09:55:17;;;;;;;0.90;0.80;;;8.50;97.30;;;;;;5015356;28;20849;-93
2023/12/30 09:57:44;;;;;;;1.10;1.00;;;8.60;97.30;;;;;;5016039;28;20204;-93
2023/12/30 10:00:15;;;;;;;1.53;1.43;;;8.60;97.30;;;;;;5024141;28;20218;-93
2023/12/30 10:02:41;;;;;;;1.00;0.90;;;8.60;97.30;;;;;;5030063;28;20576;-94
2023/12/30 10:05:07;;;;;;;1.30;1.20;;;8.60;97.30;;;;;;5029228;28;20510;-94
2023/12/30 10:07:34;;;;;;;1.63;1.53;;;8.70;97.30;;;;;;5023027;28;20522;-93
2023/12/30 10:09:59;;;;;;;1.10;1.00;;;8.70;97.30;;;;;;5017775;28;20432;-92
2023/12/30 10:12:27;;;;;;;0.90;0.80;;;8.70;97.30;;;;;;5020448;28;20954;-92
2023/12/30 10:14:52;;;;;;;1.00;0.90;;;8.70;97.30;;;;;;5038858;28;20176;-92
2023/12/30 10:17:18;;;;;;;1.27;1.17;;;8.70;97.30;;;;;;5049562;28;20455;-92
2023/12/30 10:19:47;;;;;;;1.00;0.90;;;8.70;97.30;;;;;;5048353;28;20186;-92
2023/12/30 10:22:15;;;;;;;0.80;0.70;;;8.80;97.30;;;;;;5051914;28;20251;-93
2023/12/30 10:24:40;;;;;;;0.90;0.80;;;8.90;97.30;;;;;;5057275;28;20440;-92
2023/12/30 10:27:06;;;;;;;4.10;1.30;;;9.00;97.30;;;;;;5041725;28;20475;-90
2023/12/30 10:29:32;;;;;;;1.03;0.93;;;9.00;97.30;;;;;;5051806;28;20207;-91
2023/12/30 10:32:00;;;;;;;0.90;0.80;;;9.00;97.30;;;;;;5037512;28;20687;-89
2023/12/30 10:34:26;;;;;;;1.17;1.07;;;9.00;97.30;;;;;;5028849;28;20201;-93
2023/12/30 10:36:52;;;;;;;1.03;0.93;;;9.00;97.30;;;;;;5048682;28;20453;-93
2023/12/30 10:39:22;;;;;;;1.10;1.00;;;9.00;97.30;;;;;;5038950;28;20208;-93
2023/12/30 10:41:48;;;;;;;0.90;0.80;;;9.00;97.30;;;;;;5031280;28;20550;-91
2023/12/30 10:44:14;;;;;;;1.00;0.90;;;8.90;97.30;;;;;;5047047;28;20419;-91
2023/12/30 10:46:44;;;;;;;1.67;1.57;;;8.90;97.30;;;;;;5050988;28;20195;-93
2023/12/30 10:49:14;;;;;;;1.00;0.90;;;8.90;97.30;;;;;;5041465;28;20191;-93
2023/12/30 10:51:41;;;;;;;2.07;0.93;;;9.00;97.30;;;;;;5038172;28;20475;-92
2023/12/30 10:54:10;;;;;;;1.00;0.90;;;9.00;97.30;;;;;;5041763;28;20429;-93
2023/12/30 10:56:41;;;;;;;1.20;1.10;;;9.10;97.30;;;;;;5040506;28;20687;-92
2023/12/30 10:59:07;;;;;;;1.20;1.10;;;9.10;97.30;;;;;;5035367;28;20449;-92
2023/12/30 11:01:33;;;;;;;1.20;1.10;;;9.10;97.30;;;;;;5036087;28;20467;-92
2023/12/30 11:04:01;;;;;;;1.07;0.97;;;9.10;97.30;;;;;;5034216;28;20892;-92
2023/12/30 11:06:36;;;;;;;0.90;0.80;;;9.10;97.30;;;;;;5028630;28;20427;-93
2023/12/30 11:09:09;;;;;;;1.00;0.90;;;9.20;97.30;;;;;;5034195;28;20423;-93
2023/12/30 11:11:39;;;;;;;1.00;0.90;;;9.20;97.30;;;;;;5040625;28;20450;-91
2023/12/30 11:14:11;;;;;;;1.53;1.37;;;9.20;97.30;;;;;;5036893;28;20416;-92
2023/12/30 11:16:37;;;;;;;1.00;0.90;;;9.20;97.30;;;;;;5025948;28;20430;-92
2023/12/30 11:19:04;;;;;;;1.43;1.33;;;9.20;97.30;;;;;;5025792;28;20499;-92
2023/12/30 11:21:32;;;;;;;2.50;1.97;;;9.30;97.30;;;;;;5025049;28;20223;-93
2023/12/30 11:24:03;;;;;;;0.90;0.80;;;9.30;97.30;;;;;;5031553;23;20499;-89
2023/12/30 11:26:29;;;;;;;1.10;1.00;;;9.30;97.30;;;;;;5011752;28;20480;-85
2023/12/30 11:28:59;;;;;;;0.90;0.80;;;9.40;97.30;;;;;;5013936;28;20424;-88
2023/12/30 11:31:31;;;;;;;1.10;1.00;;;9.40;97.30;;;;;;5012166;28;20439;-88
2023/12/30 11:33:58;;;;;;;1.00;0.90;;;9.40;97.30;;;;;;5001786;28;20481;-88
2023/12/30 11:36:26;;;;;;;1.10;1.00;;;9.40;97.30;;;;;;4995257;28;20453;-88
2023/12/30 11:38:58;;;;;;;2.70;1.00;;;9.40;97.30;;;;;;5004126;28;20420;-88
2023/12/30 11:41:24;;;;;;;2.10;1.83;;;9.40;97.30;;;;;;5005402;28;20452;-88
2023/12/30 11:43:50;;;;;;;1.20;1.10;;;9.40;97.30;;;;;;5005988;28;20513;-88
2023/12/30 11:46:16;;;;;;;1.20;1.10;;;9.40;97.30;;;;;;5004653;28;20409;-88
2023/12/30 11:48:44;;;;;;;0.90;0.80;;;9.40;97.30;;;;;;5004801;28;20208;-87
2023/12/30 11:51:19;;;;;;;1.00;0.90;;;9.40;97.30;;;;;;5001888;28;20432;-88
2023/12/30 11:53:44;;;;;;;1.67;1.20;;;9.40;97.30;;;;;;5004743;28;20523;-88
2023/12/30 11:56:10;;;;;;;1.20;1.10;;;9.40;97.30;;;;;;5006035;28;20513;-88
2023/12/30 11:58:36;;;;;;;1.00;0.93;;;9.40;97.30;;;;;;5002155;28;20197;-88
2023/12/30 12:01:02;;;;;;;0.90;0.80;;;9.40;97.30;;;;;;4994991;28;20186;-89
2023/12/30 12:03:27;;;;;;;1.30;1.20;;;9.40;97.30;;;;;;5008905;28;20459;-88
2023/12/30 12:05:53;;;;;;;1.27;1.17;;;9.50;97.30;;;;;;4997557;28;20213;-88
2023/12/30 12:08:18;;;;;;;1.07;0.97;;;9.50;97.30;;;;;;5011440;28;20288;-88
2023/12/30 12:10:44;;;;;;;2.23;2.03;;;9.50;97.30;;;;;;5002405;28;20555;-87
2023/12/30 12:13:11;;;;;;;0.80;0.70;;;9.50;97.30;;;;;;4994522;28;20288;-88
2023/12/30 12:15:38;;;;;;;2.83;1.33;;;9.50;97.30;;;;;;5009603;28;20169;-88
2023/12/30 12:18:04;;;;;;;0.90;0.80;;;9.50;97.30;;;;;;5005435;28;20416;-89
2023/12/30 12:20:37;;;;;;;0.90;0.80;;;9.50;97.30;;;;;;5010727;28;21015;-88
2023/12/30 12:23:03;;;;;;;4.23;1.90;;;9.50;97.30;;;;;;4989095;28;20222;-88
2023/12/30 12:25:29;;;;;;;1.03;1.00;;;9.50;97.30;;;;;;4996363;28;20424;-88
2023/12/30 12:27:56;;;;;;;1.00;0.90;;;9.50;97.30;;;;;;5007626;28;20878;-88
2023/12/30 12:30:21;;;;;;;0.93;0.83;;;9.50;97.30;;;;;;5007433;28;20178;-88
2023/12/30 12:32:47;;;;;;;1.30;1.20;;;9.50;97.30;;;;;;5000984;28;20424;-88
2023/12/30 12:35:12;;;;;;;1.00;0.90;;;9.50;97.30;;;;;;5000994;28;20240;-87
2023/12/30 12:37:38;;;;;;;1.63;1.07;;;9.50;97.30;;;;;;4996002;28;20181;-88
2023/12/30 12:40:10;;;;;;;1.37;1.27;;;9.50;97.30;;;;;;5005281;28;20187;-89
2023/12/30 12:42:36;;;;;;;3.43;1.93;;;9.50;97.30;;;;;;4997683;28;20189;-88
2023/12/30 12:45:01;;;;;;;1.00;0.90;;;9.50;97.30;;;;;;4999691;28;20421;-89
2023/12/30 12:47:27;;;;;;;1.30;1.20;;;9.50;97.30;;;;;;4987006;28;20350;-87
2023/12/30 12:49:53;;;;;;;1.40;1.30;;;9.50;97.30;;;;;;5001279;28;20180;-87
2023/12/30 12:52:18;;;;;;;0.90;0.80;;;9.50;97.30;;;;;;5006783;28;20173;-87
2023/12/30 12:54:44;;;;;;;16.53;1.53;;;9.50;97.30;;;;;;5000312;28;20974;-87
2023/12/30 12:57:10;;;;;;;1.40;1.30;;;9.50;97.30;;;;;;5006571;28;20188;-87
2023/12/30 12:59:35;;;;;;;1.47;1.27;;;9.40;97.30;;;;;;5005732;28;20185;-88
2023/12/30 13:02:00;;;;;;;1.20;1.10;;;9.40;97.30;;;;;;5008829;28;20184;-88
2023/12/30 13:04:26;;;;;;;0.90;0.80;;;9.40;97.30;;;;;;5006178;28;20212;-87
2023/12/30 13:06:52;;;;;;;1.00;0.90;;;9.40;97.30;;;;;;5006317;28;20200;-87
2023/12/30 13:09:34;;;;;;;0.90;0.80;;;9.40;97.30;;;;;;5006273;28;20241;-87
2023/12/30 13:12:01;;;;;;;0.87;0.77;;;9.30;97.30;;;;;;5009148;28;20247;-88
2023/12/30 13:14:27;;;;;;;1.20;1.10;;;9.30;97.30;;;;;;5005964;28;20447;-87
2023/12/30 13:16:57;;;;;;;0.90;0.80;;;9.20;97.30;;;;;;5006006;28;20417;-88
2023/12/30 13:19:23;;;;;;;1.00;0.90;;;9.20;97.30;;;;;;5005505;28;20681;-88
2023/12/30 13:21:50;;;;;;;1.10;1.00;;;9.20;97.30;;;;;;5006218;28;20420;-88
2023/12/30 13:24:16;;;;;;;1.10;1.00;;;9.20;97.30;;;;;;5006933;28;20229;-88
2023/12/30 13:26:43;;;;;;;1.00;0.90;;;9.20;97.30;;;;;;5004732;28;20458;-88
2023/12/30 13:29:12;;;;;;;1.00;0.90;;;9.20;97.30;;;;;;5001127;28;20280;-88
2023/12/30 13:31:38;;;;;;;0.90;0.80;;;9.30;97.30;;;;;;5005328;28;20455;-87
2023/12/30 13:34:05;;;;;;;1.30;1.20;;;9.30;97.30;;;;;;4999854;28;20467;-87
2023/12/30 13:36:32;;;;;;;3.43;2.00;;;9.30;97.30;;;;;;5005400;28;20954;-88
2023/12/30 13:39:05;;;;;;;1.20;1.10;;;9.40;97.30;;;;;;5007518;28;20507;-88
2023/12/30 13:41:31;;;;;;;0.90;0.80;;;9.30;97.30;;;;;;5005860;28;20416;-88
2023/12/30 13:43:58;;;;;;;1.00;0.90;;;9.30;97.30;;;;;;4998260;28;20528;-87
2023/12/30 13:51:44;;;;;;;2.57;1.90;;;9.20;97.30;;;;;;5002936;28;20897;-87
2023/12/30 13:54:10;;;;;;;1.10;1.00;;;9.10;97.30;;;;;;4997641;28;20424;-88
2023/12/30 13:56:41;;;;;;;2.80;1.93;;;9.10;97.30;;;;;;4999424;28;20423;-88
2023/12/30 13:59:09;;;;;;;0.97;0.87;;;9.10;97.30;;;;;;5001411;28;21057;-88
2023/12/30 14:01:36;;;;;;;1.40;1.10;;;9.10;97.30;;;;;;5000887;28;20938;-88
2023/12/30 14:04:03;;;;;;;0.97;0.87;;;9.10;97.30;;;;;;5003655;28;20432;-88
2023/12/30 14:06:35;;;;;;;0.80;0.70;;;9.10;97.30;;;;;;5005421;28;20818;-88
2023/12/30 14:09:17;;;;;;;0.90;0.80;;;9.10;97.30;;;;;;5006264;28;20709;-88
2023/12/30 14:11:48;;;;;;;2.60;1.17;;;9.10;97.30;;;;;;5005082;28;20430;-88
2023/12/30 14:14:13;;;;;;;0.90;0.80;;;9.10;97.30;;;;;;5004203;28;20439;-88
2023/12/30 14:16:39;;;;;;;1.10;1.00;;;9.00;97.30;;;;;;5009660;28;21009;-87
2023/12/30 14:19:04;;;;;;;1.00;0.90;;;9.00;97.30;;;;;;5009405;28;20441;-88
2023/12/30 14:21:31;;;;;;;27.47;2.30;;;9.00;97.30;;;;;;5006798;28;20200;-87
2023/12/30 14:23:56;;;;;;;1.53;1.20;;;9.00;97.30;;;;;;5006525;28;20236;-88
2023/12/30 14:26:25;;;;;;;0.90;0.80;;;9.00;97.30;;;;;;5003314;28;20424;-87
2023/12/30 14:28:50;;;;;;;1.83;1.13;;;9.00;97.30;;;;;;5001956;28;20213;-88
2023/12/30 14:31:16;;;;;;;1.40;1.30;;;8.90;97.30;;;;;;5008259;28;20426;-88
2023/12/30 14:33:42;;;;;;;1.57;1.47;;;8.90;97.30;;;;;;5004244;28;20579;-88
2023/12/30 14:36:08;;;;;;;2.77;1.20;;;8.90;97.30;;;;;;4996893;28;20199;-87
2023/12/30 14:38:34;;;;;;;1.67;1.57;;;8.90;97.30;;;;;;5001687;28;20416;-88
2023/12/30 14:40:59;;;;;;;1.43;1.33;;;8.90;97.30;;;;;;5005387;28;20731;-87
2023/12/30 14:43:25;;;;;;;1.00;0.90;;;8.90;97.30;;;;;;4997531;28;20222;-88
2023/12/30 14:45:51;;;;;;;1.27;1.23;;;8.90;97.30;;;;;;5001048;28;20182;-87
2023/12/30 14:48:17;;;;;;;1.73;1.50;;;8.90;97.30;;;;;;5005951;28;20221;-88
2023/12/30 14:50:43;;;;;;;0.90;0.80;;;8.90;97.30;;;;;;4995939;28;21006;-87
2023/12/30 14:53:08;;;;;;;0.87;0.77;;;8.90;97.30;;;;;;4997974;28;20271;-88
2023/12/30 14:55:34;;;;;;;0.93;0.70;;;8.90;97.30;;;;;;5001384;28;20578;-88
2023/12/30 14:58:00;;;;;;;0.90;0.80;;;8.90;97.30;;;;;;5005374;28;20188;-88
2023/12/30 15:00:25;;;;;;;1.07;0.97;;;8.90;97.30;;;;;;5005807;28;20557;-88
2023/12/30 15:02:52;;;;;;;1.33;1.23;;;8.90;97.30;;;;;;5006826;28;20228;-88
2023/12/30 15:05:21;;;;;;;1.10;1.00;;;8.90;97.30;;;;;;5002754;28;20546;-88
2023/12/30 15:07:48;;;;;;;1.10;1.00;;;8.90;97.30;;;;;;5000464;28;20493;-88
2023/12/30 15:10:15;;;;;;;1.00;0.90;;;8.90;97.30;;;;;;5006083;28;20834;-88
2023/12/30 15:12:43;;;;;;;0.80;0.70;;;8.90;97.30;;;;;;5005847;28;20423;-87
2023/12/30 15:15:09;;;;;;;0.93;0.83;;;8.90;97.30;;;;;;5007422;28;20462;-88
2023/12/30 15:17:36;;;;;;;1.57;1.50;;;8.90;97.30;;;;;;5004551;28;20510;-87
2023/12/30 15:20:03;;;;;;;1.07;0.97;;;8.90;97.30;;;;;;5004779;28;20430;-87
2023/12/30 15:22:29;;;;;;;0.90;0.80;;;8.90;97.30;;;;;;5007021;28;20424;-88
2023/12/30 15:24:55;;;;;;;1.20;1.10;;;8.90;97.30;;;;;;5004884;28;20456;-88
2023/12/30 15:27:21;;;;;;;1.00;0.90;;;8.90;97.30;;;;;;5010047;28;20466;-88
2023/12/30 15:29:47;;;;;;;1.00;0.90;;;8.90;97.30;;;;;;5005384;28;20197;-87
2023/12/30 15:32:14;;;;;;;1.20;1.10;;;8.90;97.30;;;;;;5013303;28;20297;-88
2023/12/30 15:34:40;;;;;;;1.60;1.50;;;8.90;97.30;;;;;;5011797;28;20989;-88
2023/12/30 15:37:05;;;;;;;1.10;1.00;;;8.90;97.30;;;;;;5005101;28;20417;-88
2023/12/30 15:39:31;;;;;;;2.10;1.70;;;8.90;97.30;;;;;;5000785;28;20803;-87
2023/12/30 15:41:58;;;;;;;1.10;1.00;;;8.90;97.30;;;;;;5023576;28;20186;-90
2023/12/30 15:44:23;;;;;;;1.10;1.00;;;8.90;97.30;;;;;;5033805;28;20200;-89
2023/12/30 15:46:50;;;;;;;2.70;2.30;;;8.90;97.30;;;;;;5025868;28;20420;-87
2023/12/30 15:49:15;;;;;;;1.40;1.30;;;8.90;97.30;;;;;;5009258;28;20623;-87
2023/12/30 15:51:41;;;;;;;1.00;0.90;;;8.90;97.30;;;;;;5001367;28;20523;-88
2023/12/30 15:54:06;;;;;;;2.13;1.20;;;8.90;97.30;;;;;;5008438;28;20206;-87
2023/12/30 15:56:32;;;;;;;1.20;1.10;;;8.80;97.30;;;;;;5005273;28;20671;-88
2023/12/30 15:58:58;;;;;;;1.13;1.03;;;8.80;97.30;;;;;;5007150;28;20178;-88
2023/12/30 16:01:24;;;;;;;1.13;1.07;;;8.90;97.30;;;;;;5004896;28;20553;-87
2023/12/30 16:03:49;;;;;;;1.00;0.90;;;8.80;97.30;;;;;;5009169;28;20211;-88
2023/12/30 16:06:15;;;;;;;1.10;1.00;;;8.80;97.30;;;;;;5008568;28;20183;-87
2023/12/30 16:08:41;;;;;;;1.30;1.20;;;8.80;97.30;;;;;;5001648;28;20209;-88
2023/12/30 16:11:06;;;;;;;1.37;1.27;;;8.80;97.30;;;;;;5007308;28;20426;-87
2023/12/30 16:13:32;;;;;;;1.67;1.40;;;8.80;97.30;;;;;;5004789;28;20221;-87
2023/12/30 16:16:00;;;;;;;1.07;0.97;;;8.80;97.30;;;;;;5008230;28;20180;-87
2023/12/30 16:18:26;;;;;;;1.40;1.30;;;8.80;97.30;;;;;;5003714;28;20481;-88
2023/12/30 16:20:52;;;;;;;10.43;1.10;;;8.70;97.30;;;;;;5003875;28;20935;-88
2023/12/30 16:23:18;;;;;;;2.00;1.90;;;8.70;97.30;;;;;;5000068;28;20559;-88
2023/12/30 16:25:43;;;;;;;1.63;1.53;;;8.70;97.30;;;;;;5004128;28;20508;-88
2023/12/30 16:28:09;;;;;;;1.20;1.10;;;8.70;97.30;;;;;;5010410;28;20903;-87
2023/12/30 16:30:35;;;;;;;3.60;1.17;;;8.60;97.30;;;;;;5010155;28;20169;-88
2023/12/30 16:33:01;;;;;;;3.97;3.20;;;8.60;97.30;;;;;;5010325;28;20220;-87
2023/12/30 16:35:27;;;;;;;1.87;1.77;;;8.60;97.30;;;;;;5010764;28;20426;-86
2023/12/30 16:37:53;;;;;;;1.60;1.50;;;8.60;97.30;;;;;;5008827;28;20515;-88
2023/12/30 16:40:19;;;;;;;0.80;0.70;;;8.50;97.30;;;;;;5009513;28;20446;-87
2023/12/30 16:42:45;;;;;;;1.20;1.10;;;8.60;97.30;;;;;;5006524;28;20185;-88
2023/12/30 16:45:11;;;;;;;1.63;1.63;;;8.60;97.30;;;;;;5006337;28;20428;-88
2023/12/30 16:47:37;;;;;;;1.30;1.20;;;8.60;97.30;;;;;;5002215;28;20201;-88
2023/12/30 16:50:05;;;;;;;1.20;1.00;;;8.50;97.30;;;;;;5005753;28;20177;-87
2023/12/30 16:52:31;;;;;;;1.20;1.10;;;8.50;97.30;;;;;;5010699;28;20416;-88
2023/12/30 16:54:57;;;;;;;1.10;1.00;;;8.50;97.30;;;;;;5011024;28;20427;-88
2023/12/30 16:57:22;;;;;;;1.30;1.10;;;8.50;97.30;;;;;;5008205;28;20424;-88
2023/12/30 16:59:48;;;;;;;1.53;1.50;;;8.60;97.30;;;;;;5003093;28;20675;-88
2023/12/30 17:02:13;;;;;;;1.10;1.00;;;8.50;97.30;;;;;;5011205;28;20226;-88
2023/12/30 17:04:39;;;;;;;5.00;1.93;;;8.50;97.30;;;;;;5004128;28;20201;-87
2023/12/30 17:07:05;;;;;;;5.07;3.13;;;8.50;97.30;;;;;;5014948;28;20575;-87
2023/12/30 17:09:30;;;;;;;1.97;1.67;;;8.50;97.30;;;;;;5023433;28;20457;-88
2023/12/30 17:11:56;;;;;;;1.43;1.33;;;8.50;97.30;;;;;;5010874;28;20428;-87
2023/12/30 17:14:21;;;;;;;1.37;1.00;;;8.50;97.30;;;;;;5018755;28;20197;-88
2023/12/30 17:16:47;;;;;;;1.23;1.13;;;8.50;97.30;;;;;;5023141;28;20212;-87
2023/12/30 17:19:13;;;;;;;1.60;1.50;;;8.50;97.30;;;;;;5022497;28;20196;-87
2023/12/30 17:21:38;;;;;;;1.87;1.83;;;8.50;97.30;;;;;;5014065;28;20181;-88
2023/12/30 17:24:04;;;;;;;1.53;1.43;;;8.50;97.30;;;;;;5050209;22;20479;-95
2023/12/30 17:26:30;;;;;;;1.43;1.33;;;8.50;97.30;;;;;;5038472;28;20203;-93
2023/12/30 17:28:55;;;;;;;1.03;0.93;;;8.50;97.30;;;;;;5038575;28;20456;-93
2023/12/30 17:31:21;;;;;;;1.10;1.00;;;8.50;97.30;;;;;;5037524;28;20173;-93
2023/12/30 17:33:46;;;;;;;1.00;1.00;;;8.50;97.30;;;;;;5045402;28;20197;-94
2023/12/30 17:36:14;;;;;;;2.17;1.50;;;8.40;97.30;;;;;;5031905;28;20181;-94
2023/12/30 17:38:40;;;;;;;1.53;1.43;;;8.40;97.30;;;;;;5028328;28;20185;-94
2023/12/30 17:41:05;;;;;;;1.10;1.00;;;8.30;97.30;;;;;;5026994;28;20415;-94
2023/12/30 17:43:31;;;;;;;1.27;1.17;;;8.30;97.30;;;;;;5037488;28;20516;-94
2023/12/30 17:45:56;;;;;;;5.60;2.27;;;8.30;97.30;;;;;;5029335;28;20181;-92
2023/12/30 17:48:22;;;;;;;6.43;1.50;;;8.20;97.30;;;;;;5025762;28;20204;-93
2023/12/30 17:50:47;;;;;;;1.23;1.13;;;8.20;97.30;;;;;;5017685;28;20292;-93
2023/12/30 17:53:13;;;;;;;1.43;1.33;;;8.10;97.30;;;;;;5027244;28;20180;-94
2023/12/30 17:55:40;;;;;;;1.17;1.07;;;8.10;97.30;;;;;;5030243;28;20220;-93
2023/12/30 17:58:06;;;;;;;4.33;3.50;;;8.00;97.30;;;;;;5024796;28;20181;-93
2023/12/30 18:00:32;;;;;;;1.80;1.20;;;8.00;97.30;;;;;;5030500;28;20415;-94
2023/12/30 18:02:57;;;;;;;1.50;1.40;;;8.00;97.30;;;;;;5027373;28;20931;-92
2023/12/30 18:05:23;;;;;;;1.47;1.37;;;7.90;97.30;;;;;;5022321;28;20197;-94
2023/12/30 18:07:49;;;;;;;1.10;1.00;;;7.90;97.30;;;;;;5017041;28;20701;-94